UAE1KM OMDB-EGCC
Flight info
| Callsign | UAE1KM |
|---|---|
| Flight time | N/A |
| Altitude | 30000 |
| Route | ANVIX R401 GIDIS G783 RIGIL M628 PEKEM DCT MEDPO/N0508F320 DCT ITRUX Y511 PMA Z712 WEJ L677 CVO L617 TANSA/N0490F340 UL613 KOR DCT DIMIS DCT VAKSU DCT SPL DCT ZDA DCT PEVAL DCT LAMPO DCT GUNGO DCT SAFFA DCT ELMUR DCT RIPUS L613 HOC DCT LUL DCT RLP DCT ROTSI DCT KOTUN DCT AMAXA DCT VESAN DCT RATUK DCT SOVAT L613 SANDY UN57 WELIN T420 ELVOS |
| Aircraft | B77W/H-SDE1E2E3FGHIJ2J3J4J5M1RWXY/LB1D1 |
Departure
| Time | 2026-05-07 04:07 |
|---|---|
| Airport | Dubai International Airport (OMDB) |
Arrival
| Time | N/A |
|---|---|
| Airport | Manchester Airport (EGCC) |
| Time | Latitude | Longitude | Altitude | Speed | Heading |
|---|---|---|---|---|---|
| 2026-05-07 03:13 | 25.25499 | 55.35205 | 27 ft | 0 kts | 211° |
| 2026-05-07 03:53 | 25.25517 | 55.35217 | 31 ft | 4 kts | 211° |
| 2026-05-07 03:53 | 25.25532 | 55.35228 | 26 ft | 4 kts | 211° |
| 2026-05-07 03:53 | 25.25551 | 55.35240 | 30 ft | 4 kts | 221° |
| 2026-05-07 03:53 | 25.25565 | 55.35262 | 26 ft | 4 kts | 259° |
| 2026-05-07 03:54 | 25.25563 | 55.35289 | 27 ft | 3 kts | 302° |
| 2026-05-07 03:54 | 25.25549 | 55.35313 | 28 ft | 4 kts | 302° |
| 2026-05-07 03:54 | 25.25545 | 55.35322 | 26 ft | 0 kts | 302° |
| 2026-05-07 03:57 | 25.25549 | 55.35313 | 26 ft | 5 kts | 302° |
| 2026-05-07 03:58 | 25.25581 | 55.35256 | 31 ft | 10 kts | 301° |
| 2026-05-07 03:58 | 25.25617 | 55.35192 | 29 ft | 10 kts | 302° |
| 2026-05-07 03:58 | 25.25678 | 55.35162 | 27 ft | 10 kts | 13° |
| 2026-05-07 03:58 | 25.25750 | 55.35201 | 30 ft | 13 kts | 30° |
| 2026-05-07 03:59 | 25.25835 | 55.35258 | 30 ft | 15 kts | 31° |
| 2026-05-07 03:59 | 25.25932 | 55.35322 | 31 ft | 17 kts | 31° |
| 2026-05-07 03:59 | 25.26002 | 55.35427 | 26 ft | 18 kts | 80° |
| 2026-05-07 03:59 | 25.25984 | 55.35564 | 26 ft | 18 kts | 115° |
| 2026-05-07 04:00 | 25.25918 | 55.35683 | 26 ft | 18 kts | 122° |
| 2026-05-07 04:00 | 25.25850 | 55.35802 | 27 ft | 18 kts | 122° |
| 2026-05-07 04:00 | 25.25782 | 55.35920 | 27 ft | 18 kts | 122° |
| 2026-05-07 04:00 | 25.25716 | 55.36039 | 27 ft | 18 kts | 121° |
| 2026-05-07 04:01 | 25.25650 | 55.36159 | 27 ft | 18 kts | 122° |
| 2026-05-07 04:01 | 25.25583 | 55.36278 | 27 ft | 18 kts | 122° |
| 2026-05-07 04:01 | 25.25516 | 55.36397 | 27 ft | 18 kts | 122° |
| 2026-05-07 04:01 | 25.25449 | 55.36515 | 27 ft | 18 kts | 122° |
| 2026-05-07 04:02 | 25.25383 | 55.36633 | 30 ft | 18 kts | 121° |
| 2026-05-07 04:02 | 25.25316 | 55.36753 | 26 ft | 18 kts | 122° |
| 2026-05-07 04:02 | 25.25249 | 55.36872 | 27 ft | 18 kts | 122° |
| 2026-05-07 04:02 | 25.25179 | 55.36996 | 27 ft | 19 kts | 122° |
| 2026-05-07 04:03 | 25.25107 | 55.37123 | 28 ft | 19 kts | 122° |
| 2026-05-07 04:03 | 25.25036 | 55.37250 | 28 ft | 19 kts | 121° |
| 2026-05-07 04:03 | 25.24966 | 55.37375 | 28 ft | 19 kts | 122° |
| 2026-05-07 04:03 | 25.24895 | 55.37501 | 28 ft | 19 kts | 122° |
| 2026-05-07 04:04 | 25.24824 | 55.37627 | 28 ft | 19 kts | 122° |
| 2026-05-07 04:04 | 25.24753 | 55.37754 | 27 ft | 19 kts | 121° |
| 2026-05-07 04:04 | 25.24699 | 55.37848 | 27 ft | 9 kts | 122° |
| 2026-05-07 04:04 | 25.24673 | 55.37912 | 27 ft | 9 kts | 96° |
| 2026-05-07 04:05 | 25.24700 | 55.37974 | 28 ft | 9 kts | 41° |
| 2026-05-07 04:05 | 25.24753 | 55.38014 | 29 ft | 9 kts | 32° |
| 2026-05-07 04:05 | 25.24811 | 55.38007 | 30 ft | 10 kts | 317° |
| 2026-05-07 04:05 | 25.24836 | 55.37970 | 30 ft | 0 kts | 303° |
| 2026-05-07 04:06 | 25.24845 | 55.37955 | 30 ft | 11 kts | 303° |
| 2026-05-07 04:06 | 25.24996 | 55.37683 | 30 ft | 78 kts | 301° |
| 2026-05-07 04:06 | 25.25405 | 55.36943 | 30 ft | 146 kts | 301° |
| 2026-05-07 04:06 | 25.26032 | 55.35803 | 51 ft | 196 kts | 300° |
| 2026-05-07 04:07 | 25.26749 | 55.34503 | 593 ft | 199 kts | 300° |
| 2026-05-07 04:07 | 25.27471 | 55.33159 | 1152 ft | 209 kts | 298° |
| 2026-05-07 04:07 | 25.28198 | 55.31783 | 1742 ft | 206 kts | 299° |
| 2026-05-07 04:07 | 25.28938 | 55.30396 | 2203 ft | 209 kts | 298° |
| 2026-05-07 04:08 | 25.29366 | 55.28889 | 2657 ft | 209 kts | 264° |
| 2026-05-07 04:08 | 25.28905 | 55.27419 | 3135 ft | 201 kts | 240° |
| 2026-05-07 04:08 | 25.28208 | 55.26078 | 3579 ft | 202 kts | 243° |
| 2026-05-07 04:08 | 25.27554 | 55.24655 | 3836 ft | 217 kts | 245° |
| 2026-05-07 04:09 | 25.26875 | 55.23102 | 4102 ft | 230 kts | 245° |
| 2026-05-07 04:09 | 25.26170 | 55.21476 | 4516 ft | 239 kts | 245° |
| 2026-05-07 04:09 | 25.25456 | 55.19810 | 5025 ft | 241 kts | 246° |
| 2026-05-07 04:09 | 25.24708 | 55.18156 | 5578 ft | 240 kts | 236° |
| 2026-05-07 04:10 | 25.23447 | 55.16890 | 5848 ft | 258 kts | 207° |
| 2026-05-07 04:10 | 25.21646 | 55.16456 | 6053 ft | 277 kts | 176° |
| 2026-05-07 04:10 | 25.19753 | 55.17000 | 6391 ft | 288 kts | 160° |
| 2026-05-07 04:10 | 25.17873 | 55.17853 | 6896 ft | 295 kts | 158° |
| 2026-05-07 04:11 | 25.15983 | 55.18750 | 7489 ft | 297 kts | 158° |